createdAt,value
2023-04-23T00:01:59.569Z,13.37
2023-04-23T00:04:26.728Z,13.39
2023-04-23T00:06:53.814Z,13.33
2023-04-23T00:09:26.515Z,13.29
2023-04-23T00:11:53.381Z,13.23
2023-04-23T00:14:20.609Z,13.31
2023-04-23T00:16:47.580Z,13.26
2023-04-23T00:19:14.670Z,13.16
2023-04-23T00:21:41.316Z,13.12
2023-04-23T00:24:08.155Z,13.08
2023-04-23T00:26:34.840Z,13.03
2023-04-23T00:29:01.857Z,13.00
2023-04-23T00:31:29.375Z,12.97
2023-04-23T00:33:56.200Z,12.93
2023-04-23T00:36:23.031Z,12.88
2023-04-23T00:38:50.479Z,12.84
2023-04-23T00:41:17.434Z,12.80
2023-04-23T00:43:44.674Z,12.77
2023-04-23T00:46:11.574Z,12.80
2023-04-23T00:48:38.847Z,12.72
2023-04-23T00:51:06.710Z,12.63
2023-04-23T00:53:34.942Z,12.63
2023-04-23T00:56:02.519Z,12.56
2023-04-23T00:58:29.792Z,12.51
2023-04-23T01:00:56.968Z,12.46
2023-04-23T01:03:25.595Z,12.42
2023-04-23T01:05:53.017Z,12.49
2023-04-23T01:08:21.517Z,12.40
2023-04-23T01:10:49.496Z,12.29
2023-04-23T01:13:16.691Z,12.28
2023-04-23T01:15:44.848Z,12.09
2023-04-23T01:18:14.476Z,12.01
2023-04-23T01:20:41.283Z,11.91
2023-04-23T01:23:08.133Z,11.84
2023-04-23T01:25:35.341Z,11.78
2023-04-23T01:28:02.262Z,11.66
2023-04-23T01:30:29.396Z,11.68
2023-04-23T01:32:56.462Z,11.69
2023-04-23T01:35:23.749Z,11.55
2023-04-23T01:37:51.894Z,11.52
2023-04-23T01:40:19.821Z,11.31
2023-04-23T01:42:46.747Z,11.23
2023-04-23T01:45:13.901Z,11.13
2023-04-23T01:47:42.116Z,11.12
2023-04-23T01:50:09.581Z,10.94
2023-04-23T01:52:36.594Z,10.87
2023-04-23T01:55:03.571Z,10.75
2023-04-23T01:57:30.532Z,10.50
2023-04-23T02:00:04.872Z,10.43
2023-04-23T02:02:39.986Z,10.35
2023-04-23T02:05:22.065Z,10.30
2023-04-23T02:07:50.150Z,10.24
2023-04-23T02:10:17.094Z,10.12
2023-04-23T02:12:44.216Z,10.01
2023-04-23T02:15:11.539Z,9.93
2023-04-23T02:17:40.107Z,9.85
2023-04-23T02:20:10.707Z,9.81
2023-04-23T02:22:41.972Z,9.73
2023-04-23T02:25:09.131Z,9.68
2023-04-23T02:27:36.042Z,9.68
2023-04-23T02:30:03.518Z,9.56
2023-04-23T02:32:30.918Z,9.53
2023-04-23T02:34:59.020Z,9.49
2023-04-23T02:37:26.900Z,9.39
2023-04-23T02:39:53.893Z,9.34
2023-04-23T02:42:20.827Z,9.31
2023-04-23T02:44:47.600Z,9.31
2023-04-23T02:47:14.259Z,9.27
2023-04-23T02:49:40.960Z,9.17
2023-04-23T02:52:07.626Z,9.22
2023-04-23T02:54:34.336Z,9.21
2023-04-23T02:57:01.690Z,9.16
2023-04-23T02:59:28.435Z,9.03
2023-04-23T03:01:55.307Z,8.91
2023-04-23T03:04:22.715Z,8.91
2023-04-23T03:06:50.054Z,8.83
2023-04-23T03:09:16.793Z,8.74
2023-04-23T03:11:43.816Z,8.69
2023-04-23T03:14:12.558Z,8.64
2023-04-23T03:16:39.348Z,8.61
2023-04-23T03:19:06.673Z,8.56
2023-04-23T03:21:33.398Z,8.54
2023-04-23T03:24:00.145Z,8.47
2023-04-23T03:26:26.843Z,8.45
2023-04-23T03:28:53.600Z,8.43
2023-04-23T03:31:20.509Z,8.45
2023-04-23T03:33:47.639Z,8.41
2023-04-23T03:36:18.672Z,8.43
2023-04-23T03:38:45.730Z,8.30
2023-04-23T03:41:12.568Z,8.19
2023-04-23T03:43:39.436Z,8.19
2023-04-23T03:46:19.437Z,8.26
2023-04-23T03:48:46.949Z,8.35
2023-04-23T03:51:21.210Z,8.33
2023-04-23T03:53:49.803Z,8.28
2023-04-23T03:56:28.637Z,8.25
2023-04-23T03:59:11.666Z,8.22
2023-04-23T04:01:38.445Z,8.23
2023-04-23T04:04:05.291Z,8.14
2023-04-23T04:06:33.210Z,8.11
2023-04-23T04:08:59.868Z,8.03
2023-04-23T04:11:26.941Z,8.03
2023-04-23T04:13:53.554Z,8.05
2023-04-23T04:16:20.518Z,8.04
2023-04-23T04:18:47.165Z,8.08
2023-04-23T04:21:13.974Z,8.05
2023-04-23T04:23:40.676Z,8.09
2023-04-23T04:26:08.233Z,8.18
2023-04-23T04:28:36.435Z,8.30
2023-04-23T04:31:07.068Z,8.34
2023-04-23T04:33:35.773Z,8.36
2023-04-23T04:36:02.391Z,8.54
2023-04-23T04:38:29.861Z,8.69
2023-04-23T04:41:00.123Z,8.83
2023-04-23T04:43:27.155Z,8.99
2023-04-23T04:45:53.867Z,9.13
2023-04-23T04:48:20.783Z,9.29
2023-04-23T04:50:47.509Z,9.45
2023-04-23T04:53:14.112Z,9.57
2023-04-23T04:55:41.479Z,9.81
2023-04-23T04:58:08.209Z,9.89
2023-04-23T05:00:35.081Z,10.00
2023-04-23T05:03:01.896Z,10.17
2023-04-23T05:05:28.609Z,10.31
2023-04-23T05:07:55.308Z,10.50
2023-04-23T05:10:22.022Z,10.72
2023-04-23T05:12:48.697Z,10.92
2023-04-23T05:15:15.234Z,11.11
2023-04-23T05:17:42.508Z,11.17
2023-04-23T05:20:14.381Z,11.39
2023-04-23T05:22:42.490Z,11.60
2023-04-23T05:25:10.027Z,11.78
2023-04-23T05:27:36.649Z,11.92
2023-04-23T05:30:04.624Z,12.14
2023-04-23T05:32:31.663Z,12.26
2023-04-23T05:35:00.171Z,12.43
2023-04-23T05:37:26.868Z,12.66
2023-04-23T05:39:53.513Z,12.84
2023-04-23T05:42:20.334Z,13.03
2023-04-23T05:44:47.069Z,13.19
2023-04-23T05:47:14.429Z,13.40
2023-04-23T05:49:41.173Z,13.49
2023-04-23T05:52:07.893Z,13.63
2023-04-23T05:54:34.531Z,13.82
2023-04-23T05:57:01.438Z,13.93
2023-04-23T05:59:28.073Z,14.05
2023-04-23T06:01:54.923Z,14.18
2023-04-23T06:04:21.947Z,14.25
2023-04-23T06:06:48.714Z,14.39
2023-04-23T06:09:15.483Z,14.50
2023-04-23T06:11:42.140Z,14.62
2023-04-23T06:14:08.775Z,14.78
2023-04-23T06:16:35.469Z,14.95
2023-04-23T06:19:03.442Z,15.11
2023-04-23T06:21:30.549Z,15.17
2023-04-23T06:23:57.184Z,15.35
2023-04-23T06:26:23.844Z,15.51
2023-04-23T06:28:52.129Z,15.68
2023-04-23T06:31:29.274Z,15.88
2023-04-23T06:33:55.985Z,16.00
2023-04-23T06:36:22.568Z,16.11
2023-04-23T06:38:49.296Z,16.25
2023-04-23T06:41:15.989Z,16.33
2023-04-23T06:43:42.662Z,16.50
2023-04-23T06:46:20.927Z,16.54
2023-04-23T06:48:47.769Z,16.67
2023-04-23T06:51:14.819Z,16.82
2023-04-23T06:53:41.565Z,16.84
2023-04-23T06:56:08.658Z,16.64
2023-04-23T06:58:35.400Z,16.37
2023-04-23T07:01:11.942Z,16.69
2023-04-23T07:03:39.014Z,16.82
2023-04-23T07:06:05.890Z,16.94
2023-04-23T07:08:32.583Z,17.21
2023-04-23T07:10:59.214Z,17.37
2023-04-23T07:13:25.965Z,17.41
2023-04-23T07:15:52.665Z,17.56
2023-04-23T07:18:20.829Z,17.74
2023-04-23T07:20:47.487Z,17.77
2023-04-23T07:23:14.253Z,17.92
2023-04-23T07:25:41.131Z,18.04
2023-04-23T07:28:07.792Z,18.11
2023-04-23T07:30:34.439Z,18.28
2023-04-23T07:33:01.216Z,18.51
2023-04-23T07:35:28.004Z,18.72
2023-04-23T07:37:56.084Z,18.79
2023-04-23T07:40:23.336Z,18.71
2023-04-23T07:42:50.911Z,18.84
2023-04-23T07:45:18.700Z,18.95
2023-04-23T07:47:46.915Z,18.99
2023-04-23T07:50:14.064Z,19.11
2023-04-23T07:52:40.953Z,19.12
2023-04-23T07:55:08.329Z,19.13
2023-04-23T07:57:34.963Z,19.20
2023-04-23T08:00:02.463Z,19.42
2023-04-23T08:02:38.759Z,19.62
2023-04-23T08:05:07.031Z,19.78
2023-04-23T08:07:33.947Z,19.86
2023-04-23T08:10:04.252Z,19.89
2023-04-23T08:12:31.215Z,20.13
2023-04-23T08:14:58.274Z,20.00
2023-04-23T08:17:31.465Z,20.15
2023-04-23T08:19:58.204Z,20.34
2023-04-23T08:22:24.880Z,20.46
2023-04-23T08:24:51.748Z,20.25
2023-04-23T08:27:18.464Z,20.22
2023-04-23T08:29:45.112Z,20.33
2023-04-23T08:32:11.950Z,20.35
2023-04-23T08:34:38.684Z,20.41
2023-04-23T08:37:05.371Z,20.88
2023-04-23T08:39:34.076Z,21.24
2023-04-23T08:42:20.457Z,21.52
2023-04-23T08:44:47.414Z,21.72
2023-04-23T08:47:17.949Z,22.09
2023-04-23T08:49:46.068Z,22.43
2023-04-23T08:52:17.889Z,22.75
2023-04-23T08:54:49.979Z,23.11
2023-04-23T08:57:18.061Z,23.43
2023-04-23T08:59:46.196Z,23.52
2023-04-23T09:02:14.775Z,23.23
2023-04-23T09:04:41.516Z,23.05
2023-04-23T09:07:11.348Z,23.33
2023-04-23T09:09:39.616Z,23.30
2023-04-23T09:12:07.957Z,23.44
2023-04-23T09:17:03.226Z,23.43
2023-04-23T09:19:30.475Z,23.49
2023-04-23T09:21:58.340Z,23.57
2023-04-23T09:24:26.080Z,23.61
2023-04-23T09:26:53.035Z,23.65
2023-04-23T09:29:23.361Z,23.86
2023-04-23T09:31:51.882Z,23.93
2023-04-23T09:34:22.585Z,24.04
2023-04-23T09:36:51.813Z,24.11
2023-04-23T09:39:22.332Z,23.92
2023-04-23T09:41:51.841Z,23.95
2023-04-23T09:44:19.602Z,24.29
2023-04-23T09:46:46.333Z,24.35
2023-04-23T09:49:13.719Z,24.55
2023-04-23T09:51:48.231Z,24.62
2023-04-23T09:54:23.587Z,24.06
2023-04-23T09:56:52.477Z,24.21
2023-04-23T09:59:35.428Z,24.55
2023-04-23T10:02:11.504Z,24.72
2023-04-23T10:04:38.592Z,24.76
2023-04-23T10:07:18.850Z,24.72
2023-04-23T10:09:47.107Z,24.65
2023-04-23T10:14:45.225Z,24.03
2023-04-23T10:17:12.247Z,24.31
2023-04-23T10:19:41.562Z,23.47
2023-04-23T10:22:19.306Z,23.62
2023-04-23T10:24:52.697Z,23.90
2023-04-23T10:29:51.152Z,24.23
2023-04-23T10:32:17.793Z,24.31
2023-04-23T10:34:44.899Z,24.41
2023-04-23T10:37:12.132Z,24.52
2023-04-23T10:39:38.924Z,24.63
2023-04-23T10:42:05.960Z,24.77
2023-04-23T10:47:06.957Z,25.12
2023-04-23T10:49:34.342Z,25.31
2023-04-23T10:52:20.084Z,25.47
2023-04-23T10:54:49.866Z,25.38
2023-04-23T10:57:16.613Z,25.44
2023-04-23T10:59:54.678Z,25.33
2023-04-23T11:02:24.117Z,25.39
2023-04-23T11:04:57.175Z,25.48
2023-04-23T11:07:31.654Z,25.70
2023-04-23T11:10:12.290Z,25.91
2023-04-23T11:12:39.868Z,26.13
2023-04-23T11:15:16.935Z,26.19
2023-04-23T11:17:43.616Z,26.33
2023-04-23T11:20:21.000Z,26.35
2023-04-23T11:22:52.052Z,26.42
2023-04-23T11:25:30.508Z,26.35
2023-04-23T11:28:01.514Z,26.57
2023-04-23T11:30:29.704Z,26.74
2023-04-23T11:32:57.812Z,26.93
2023-04-23T11:35:30.428Z,27.03
2023-04-23T11:37:57.226Z,27.06
2023-04-23T11:40:24.388Z,27.11
2023-04-23T11:42:57.711Z,27.49
2023-04-23T11:45:26.521Z,27.67
2023-04-23T11:47:57.736Z,28.04
2023-04-23T11:50:33.610Z,28.10
2023-04-23T11:53:09.121Z,27.96
2023-04-23T11:55:35.817Z,28.11
2023-04-23T11:58:03.251Z,28.24
2023-04-23T12:00:30.071Z,28.20
2023-04-23T12:02:58.796Z,28.39
2023-04-23T12:05:30.149Z,28.30
2023-04-23T12:08:17.025Z,28.15
2023-04-23T12:10:49.589Z,27.81
2023-04-23T12:13:17.047Z,28.21
2023-04-23T12:16:05.124Z,28.30
2023-04-23T12:18:40.367Z,28.43
2023-04-23T12:21:11.779Z,28.22
2023-04-23T12:23:44.810Z,28.20
2023-04-23T12:26:13.809Z,28.28
2023-04-23T12:28:54.056Z,28.60
2023-04-23T12:31:23.027Z,28.29
2023-04-23T12:34:07.033Z,28.34
2023-04-23T12:36:36.713Z,28.49
2023-04-23T12:39:32.137Z,28.54
2023-04-23T12:42:06.939Z,28.84
2023-04-23T12:44:35.547Z,29.05
2023-04-23T12:47:09.681Z,28.92
2023-04-23T12:49:38.188Z,28.91
2023-04-23T12:52:06.591Z,28.88
2023-04-23T12:54:37.405Z,28.61
2023-04-23T12:57:06.105Z,28.25
2023-04-23T12:59:33.350Z,28.35
2023-04-23T13:02:03.835Z,28.56
2023-04-23T13:04:32.090Z,28.51
2023-04-23T13:06:58.750Z,28.50
2023-04-23T13:09:39.506Z,28.37
2023-04-23T13:12:06.355Z,28.46
2023-04-23T13:14:33.053Z,28.20
2023-04-23T13:16:59.815Z,28.09
2023-04-23T13:19:26.581Z,28.20
2023-04-23T13:21:53.865Z,28.25
2023-04-23T13:24:20.648Z,28.24
2023-04-23T13:26:47.428Z,27.84
2023-04-23T13:29:14.074Z,28.09
2023-04-23T13:31:41.119Z,28.06
2023-04-23T13:34:08.244Z,28.17
2023-04-23T13:36:34.871Z,28.00
2023-04-23T13:39:01.604Z,27.86
2023-04-23T13:41:28.392Z,27.89
2023-04-23T13:43:55.003Z,27.67
2023-04-23T13:46:21.842Z,27.43
2023-04-23T13:48:48.475Z,27.71
2023-04-23T13:51:33.014Z,27.82
2023-04-23T13:54:01.562Z,27.87
2023-04-23T13:56:30.121Z,28.07
2023-04-23T13:59:17.947Z,28.10
2023-04-23T14:01:47.220Z,28.13
2023-04-23T14:04:14.048Z,28.11
2023-04-23T14:06:40.807Z,28.23
2023-04-23T14:09:07.455Z,28.17
2023-04-23T14:11:34.176Z,28.02
2023-04-23T14:14:01.330Z,28.00
2023-04-23T14:16:28.038Z,28.01
2023-04-23T14:18:54.756Z,28.00
2023-04-23T14:21:22.677Z,27.76
2023-04-23T14:23:50.570Z,27.70
2023-04-23T14:26:47.364Z,27.62
2023-04-23T14:29:36.145Z,27.62
2023-04-23T14:32:02.872Z,27.65
2023-04-23T14:34:29.652Z,27.54
2023-04-23T14:36:56.345Z,27.22
2023-04-23T14:39:23.493Z,27.10
2023-04-23T14:41:50.242Z,26.98
2023-04-23T14:44:17.076Z,26.71
2023-04-23T14:46:44.287Z,26.68
2023-04-23T14:49:10.983Z,26.67
2023-04-23T14:51:37.848Z,26.50
2023-04-23T14:54:05.018Z,26.44
2023-04-23T14:56:31.709Z,26.42
2023-04-23T14:58:58.360Z,26.38
2023-04-23T15:01:25.047Z,26.34
2023-04-23T15:03:53.197Z,26.10
2023-04-23T15:06:20.091Z,26.03
2023-04-23T15:08:46.761Z,25.90
2023-04-23T15:11:13.694Z,25.71
2023-04-23T15:14:03.911Z,25.72
2023-04-23T15:16:46.873Z,25.65
2023-04-23T15:19:14.938Z,25.65
2023-04-23T15:21:43.210Z,25.62
2023-04-23T15:24:10.096Z,25.43
2023-04-23T15:26:37.182Z,25.29
2023-04-23T15:29:05.058Z,25.25
2023-04-23T15:31:31.726Z,25.17
2023-04-23T15:33:58.546Z,25.18
2023-04-23T15:36:25.186Z,25.06
2023-04-23T15:38:51.852Z,25.01
2023-04-23T15:41:18.562Z,25.04
2023-04-23T15:43:46.522Z,25.10
2023-04-23T15:46:13.384Z,25.09
2023-04-23T15:48:40.127Z,25.06
2023-04-23T15:51:07.515Z,25.06
2023-04-23T15:53:34.172Z,24.97
2023-04-23T15:56:00.800Z,24.81
2023-04-23T15:58:27.487Z,24.68
2023-04-23T16:00:54.270Z,24.59
2023-04-23T16:03:21.467Z,24.56
2023-04-23T16:05:50.637Z,24.42
2023-04-23T16:08:17.501Z,24.31
2023-04-23T16:10:44.276Z,24.25
2023-04-23T16:13:10.981Z,24.24
2023-04-23T16:15:37.694Z,24.21
2023-04-23T16:18:06.189Z,24.06
2023-04-23T16:20:33.384Z,23.95
2023-04-23T16:23:00.119Z,23.95
2023-04-23T16:25:26.830Z,23.85
2023-04-23T16:27:53.686Z,23.65
2023-04-23T16:30:20.308Z,23.60
2023-04-23T16:32:47.065Z,23.53
2023-04-23T16:35:13.773Z,23.48
2023-04-23T16:37:40.482Z,23.34
2023-04-23T16:40:07.701Z,23.16
2023-04-23T16:42:34.466Z,23.08
2023-04-23T16:45:01.086Z,22.97
2023-04-23T16:47:29.407Z,22.90
2023-04-23T16:49:56.066Z,22.80
2023-04-23T16:52:22.756Z,22.71
2023-04-23T16:54:49.603Z,22.57
2023-04-23T16:57:17.249Z,22.39
2023-04-23T16:59:43.967Z,22.36
2023-04-23T17:02:10.714Z,22.25
2023-04-23T17:04:37.574Z,22.10
2023-04-23T17:07:04.361Z,22.02
2023-04-23T17:09:31.747Z,22.04
2023-04-23T17:11:59.410Z,21.85
2023-04-23T17:14:26.659Z,21.82
2023-04-23T17:16:53.317Z,21.57
2023-04-23T17:19:19.997Z,21.46
2023-04-23T17:21:46.686Z,21.36
2023-04-23T17:24:13.431Z,21.25
2023-04-23T17:26:40.083Z,21.23
2023-04-23T17:29:07.080Z,20.99
2023-04-23T17:31:35.412Z,20.92
2023-04-23T17:34:03.511Z,20.84
2023-04-23T17:36:30.231Z,20.73
2023-04-23T17:38:56.908Z,20.64
2023-04-23T17:41:23.571Z,20.58
2023-04-23T17:43:50.605Z,20.49
2023-04-23T17:46:17.350Z,20.45
2023-04-23T17:48:44.911Z,20.34
2023-04-23T17:51:11.645Z,20.24
2023-04-23T17:53:38.438Z,20.11
2023-04-23T17:56:05.157Z,20.01
2023-04-23T17:58:31.940Z,20.05
2023-04-23T18:00:58.790Z,19.99
2023-04-23T18:03:26.718Z,19.85
2023-04-23T18:05:54.132Z,19.74
2023-04-23T18:08:21.495Z,19.66
2023-04-23T18:10:48.405Z,19.58
2023-04-23T18:13:15.189Z,19.57
2023-04-23T18:15:42.367Z,19.52
2023-04-23T18:18:09.314Z,19.38
2023-04-23T18:20:38.586Z,19.28
2023-04-23T18:23:06.785Z,19.18
2023-04-23T18:25:33.568Z,19.14
2023-04-23T18:28:00.382Z,19.10
2023-04-23T18:30:27.049Z,19.05
2023-04-23T18:33:07.872Z,18.98
2023-04-23T18:35:34.872Z,18.91
2023-04-23T18:38:07.825Z,18.85
2023-04-23T18:40:34.565Z,18.78
2023-04-23T18:43:01.451Z,18.81
2023-04-23T18:45:28.264Z,18.80
2023-04-23T18:48:03.749Z,18.75
2023-04-23T18:50:50.207Z,18.70
2023-04-23T18:53:16.930Z,18.66
2023-04-23T18:55:43.576Z,18.58
2023-04-23T18:58:10.709Z,18.57
2023-04-23T19:00:37.400Z,18.47
2023-04-23T19:03:12.083Z,18.37
2023-04-23T19:05:46.712Z,18.29
2023-04-23T19:08:13.439Z,18.27
2023-04-23T19:10:40.104Z,18.17
2023-04-23T19:13:06.766Z,18.11
2023-04-23T19:15:33.502Z,18.06
2023-04-23T19:18:00.309Z,18.00
2023-04-23T19:20:27.075Z,17.93
2023-04-23T19:22:53.660Z,17.91
2023-04-23T19:25:20.282Z,17.83
2023-04-23T19:27:46.900Z,17.77
2023-04-23T19:30:13.744Z,17.77
2023-04-23T19:32:40.511Z,17.70
2023-04-23T19:35:07.468Z,17.69
2023-04-23T19:37:34.130Z,17.65
2023-04-23T19:40:00.985Z,17.57
2023-04-23T19:42:30.034Z,17.55
2023-04-23T19:44:56.936Z,17.50
2023-04-23T19:47:23.706Z,17.55
2023-04-23T19:49:51.421Z,17.51
2023-04-23T19:52:22.368Z,17.48
2023-04-23T19:54:49.900Z,17.46
2023-04-23T19:57:19.191Z,17.53
2023-04-23T19:59:46.407Z,17.42
2023-04-23T20:02:13.311Z,17.46
2023-04-23T20:04:41.390Z,17.67
2023-04-23T20:07:08.269Z,17.67
2023-04-23T20:09:35.503Z,17.62
2023-04-23T20:12:02.953Z,17.69
2023-04-23T20:14:30.027Z,17.63
2023-04-23T20:16:57.324Z,17.56
2023-04-23T20:19:26.170Z,17.65
2023-04-23T20:21:52.975Z,17.63
2023-04-23T20:24:21.493Z,17.51
2023-04-23T20:26:48.593Z,17.49
2023-04-23T20:29:15.341Z,17.44
2023-04-23T20:31:42.424Z,17.39
2023-04-23T20:34:11.047Z,17.36
2023-04-23T20:36:38.958Z,17.27
2023-04-23T20:39:05.752Z,17.20
2023-04-23T20:41:34.453Z,17.00
2023-04-23T20:44:02.042Z,16.90
2023-04-23T20:46:30.495Z,16.88
2023-04-23T20:48:59.316Z,16.90
2023-04-23T20:51:28.611Z,16.88
2023-04-23T20:53:57.552Z,16.94
2023-04-23T20:56:24.246Z,16.95
2023-04-23T20:58:50.901Z,16.89
2023-04-23T21:01:17.593Z,16.86
2023-04-23T21:03:44.357Z,16.89
2023-04-23T21:06:11.612Z,16.89
2023-04-23T21:08:41.305Z,16.95
2023-04-23T21:11:14.596Z,16.87
2023-04-23T21:13:42.365Z,16.84
2023-04-23T21:16:09.361Z,16.88
2023-04-23T21:18:36.139Z,16.72
2023-04-23T21:21:02.773Z,16.62
2023-04-23T21:23:30.049Z,16.58
2023-04-23T21:25:57.214Z,16.48
2023-04-23T21:28:24.003Z,16.55
2023-04-23T21:30:55.605Z,16.46
2023-04-23T21:33:24.386Z,16.43
2023-04-23T21:35:52.343Z,16.29
2023-04-23T21:38:20.154Z,16.28
2023-04-23T21:40:46.964Z,16.17
2023-04-23T21:43:13.954Z,16.05
2023-04-23T21:45:40.624Z,16.12
2023-04-23T21:48:07.558Z,16.14
2023-04-23T21:50:34.341Z,16.05
2023-04-23T21:53:03.275Z,15.92
2023-04-23T21:55:31.710Z,15.91
2023-04-23T21:58:09.820Z,15.89
2023-04-23T22:00:40.984Z,15.68
2023-04-23T22:03:09.144Z,15.67
2023-04-23T22:05:37.563Z,15.68
2023-04-23T22:08:06.842Z,15.58
2023-04-23T22:10:33.784Z,15.46
2023-04-23T22:13:00.611Z,15.39
2023-04-23T22:15:28.918Z,15.40
2023-04-23T22:17:59.934Z,15.45
2023-04-23T22:20:27.240Z,15.53
2023-04-23T22:22:53.871Z,15.58
2023-04-23T22:25:20.590Z,15.54
2023-04-23T22:27:47.494Z,15.52
2023-04-23T22:30:14.389Z,15.59
2023-04-23T22:32:41.169Z,15.51
2023-04-23T22:35:08.548Z,15.64
2023-04-23T22:37:35.848Z,15.52
2023-04-23T22:40:04.350Z,15.51
2023-04-23T22:42:31.345Z,15.49
2023-04-23T22:44:58.140Z,15.52
2023-04-23T22:47:25.284Z,15.52
2023-04-23T22:49:51.988Z,15.49
2023-04-23T22:52:18.847Z,15.48
2023-04-23T22:54:46.068Z,15.48
2023-04-23T22:57:12.797Z,15.53
2023-04-23T22:59:39.997Z,15.43
2023-04-23T23:02:07.484Z,15.42
2023-04-23T23:04:37.831Z,15.38
2023-04-23T23:07:08.160Z,15.40
2023-04-23T23:09:35.164Z,15.33
2023-04-23T23:12:02.938Z,15.27
2023-04-23T23:14:30.161Z,15.28
2023-04-23T23:16:57.349Z,15.31
2023-04-23T23:19:26.557Z,15.32
2023-04-23T23:21:53.259Z,15.31
2023-04-23T23:24:20.025Z,15.23
2023-04-23T23:26:46.783Z,15.33
2023-04-23T23:29:13.637Z,15.22
2023-04-23T23:31:40.447Z,15.10
2023-04-23T23:34:07.152Z,15.02
2023-04-23T23:36:34.225Z,15.04
2023-04-23T23:39:01.180Z,14.98
2023-04-23T23:41:27.957Z,14.89
2023-04-23T23:43:54.827Z,14.85
2023-04-23T23:46:21.974Z,14.84
2023-04-23T23:48:48.836Z,14.94
2023-04-23T23:51:16.310Z,14.87
2023-04-23T23:53:43.054Z,14.84
2023-04-23T23:56:09.762Z,14.74
2023-04-23T23:58:36.550Z,14.67
